Time;durP1;ratioP1;P1;durP2;ratioP2;P2;SDS_P1;SDS_P2;PMS_P1;PMS_P2;Temp;Humidity;BMP_temperature;BMP_pressure;BME280_temperature;BME280_humidity;BME280_pressure;Samples;Min_cycle;Max_cycle;Signal;HPM_P1;HPM_P2
2023/06/05 00:02:07;;;;;;;4.05;1.95;;;;;;;17.94;60.18;100041.16;4474524;32;20134;-81
2023/06/05 00:04:35;;;;;;;5.55;2.28;;;;;;;17.96;60.18;100044.53;4456737;32;20160;-80
2023/06/05 00:07:02;;;;;;;5.07;2.00;;;;;;;18.07;60.19;100036.03;4457655;32;20634;-81
2023/06/05 00:09:28;;;;;;;5.90;1.80;;;;;;;17.96;60.18;100044.53;4465282;32;20833;-79
2023/06/05 00:11:53;;;;;;;2.90;1.87;;;;;;;17.85;60.18;100039.06;4452052;32;20111;-79
2023/06/05 00:14:19;;;;;;;4.00;2.10;;;;;;;18.01;60.18;100037.25;4479417;32;20127;-81
2023/06/05 00:16:44;;;;;;;5.07;2.05;;;;;;;18.05;60.18;100030.00;4478467;32;28721;-80
2023/06/05 00:19:11;;;;;;;6.53;2.40;;;;;;;18.22;60.18;100029.88;4456891;32;20154;-81
2023/06/05 00:21:37;;;;;;;3.97;2.17;;;;;;;18.14;60.18;100031.25;4474277;32;20147;-81
2023/06/05 00:24:02;;;;;;;3.47;2.08;;;;;;;18.15;60.18;100033.78;4442216;32;20101;-80
2023/06/05 00:26:28;;;;;;;2.47;1.70;;;;;;;18.10;60.18;100031.44;4478969;32;20148;-81
2023/06/05 00:28:53;;;;;;;7.18;1.87;;;;;;;18.18;60.19;100027.50;4441611;32;20124;-81
2023/06/05 00:31:21;;;;;;;8.20;2.28;;;;;;;18.31;60.19;100031.94;4462946;32;20121;-80
2023/06/05 00:33:46;;;;;;;4.30;2.33;;;;;;;18.36;60.20;100027.25;4479128;32;20841;-81
2023/06/05 00:36:12;;;;;;;3.72;2.00;;;;;;;18.40;60.20;100025.28;4481145;32;20452;-81
2023/06/05 00:38:37;;;;;;;3.00;2.08;;;;;;;18.28;60.19;100026.87;4455514;32;34549;-82
2023/06/05 00:41:03;;;;;;;3.03;2.10;;;;;;;18.41;60.20;100029.59;4465450;32;20465;-82
2023/06/05 00:43:28;;;;;;;3.67;2.33;;;;;;;18.38;60.20;100032.44;4482276;32;20089;-82
2023/06/05 00:45:59;;;;;;;2.95;1.87;;;;;;;18.22;60.18;100032.50;4470399;32;20120;-82
2023/06/05 00:48:25;;;;;;;2.45;1.75;;;;;;;18.25;60.19;100034.97;4443285;32;20100;-83
2023/06/05 00:50:50;;;;;;;3.60;1.98;;;;;;;18.30;60.20;100032.03;4443414;32;20168;-82
2023/06/05 00:53:15;;;;;;;3.42;2.08;;;;;;;18.28;60.19;100028.66;4476973;32;20137;-82
2023/06/05 00:55:41;;;;;;;4.20;2.12;;;;;;;18.29;60.19;100030.34;4471176;32;31629;-82
2023/06/05 00:58:07;;;;;;;4.00;2.00;;;;;;;18.36;60.19;100034.31;4458885;32;20140;-82
2023/06/05 01:00:33;;;;;;;3.00;1.85;;;;;;;18.29;60.19;100038.25;4471151;32;34383;-82
2023/06/05 01:02:59;;;;;;;3.65;2.55;;;;;;;18.29;60.19;100030.34;4453662;32;20093;-81
2023/06/05 01:05:26;;;;;;;4.35;2.00;;;;;;;18.29;60.18;100030.34;4431657;32;20119;-81
2023/06/05 01:07:51;;;;;;;4.40;2.00;;;;;;;18.47;60.20;100028.41;4469160;32;20097;-81
2023/06/05 01:10:17;;;;;;;2.67;1.77;;;;;;;18.36;60.19;100034.31;4456176;32;20128;-82
2023/06/05 01:13:00;;;;;;;3.72;1.70;;;;;;;18.37;60.20;100026.31;4442502;32;33373;-82
2023/06/05 01:15:31;;;;;;;5.32;2.05;;;;;;;18.31;60.20;100025.84;4470446;32;20123;-82
2023/06/05 01:18:00;;;;;;;3.42;2.12;;;;;;;18.44;60.20;100024.16;4448664;32;20432;-82
2023/06/05 01:20:35;;;;;;;3.42;1.70;;;;;;;18.46;60.20;100022.28;4456376;32;20110;-82
2023/06/05 01:23:03;;;;;;;2.80;1.70;;;;;;;18.32;60.20;100024.91;4456390;32;20127;-82
2023/06/05 01:25:29;;;;;;;5.57;2.20;;;;;;;18.35;60.19;100027.34;4460025;32;20131;-82
2023/06/05 01:28:00;;;;;;;4.05;2.00;;;;;;;18.38;60.20;100019.25;4449088;32;20465;-82
2023/06/05 01:30:35;;;;;;;5.03;2.37;;;;;;;18.46;60.19;100016.19;4459015;32;20115;-82
2023/06/05 01:33:03;;;;;;;5.62;2.15;;;;;;;18.29;60.19;100025.94;4471535;32;20131;-82
2023/06/05 01:35:32;;;;;;;2.65;1.98;;;;;;;18.34;60.19;100023.00;4458726;32;20147;-81
2023/06/05 01:37:58;;;;;;;3.28;2.00;;;;;;;18.50;60.21;100018.53;4455839;32;20161;-81
2023/06/05 01:40:24;;;;;;;3.22;1.77;;;;;;;18.44;60.20;100025.94;4462684;32;20724;-82
2023/06/05 01:42:50;;;;;;;4.12;2.17;;;;;;;18.32;60.20;100022.25;4460896;32;20140;-82
2023/06/05 01:45:16;;;;;;;3.08;1.92;;;;;;;18.31;60.20;100020.56;4470923;32;20782;-80
2023/06/05 01:47:43;;;;;;;5.82;2.03;;;;;;;18.34;60.19;100028.28;4471361;32;20114;-82
2023/06/05 01:50:12;;;;;;;3.12;2.22;;;;;;;18.44;60.20;100029.41;4471291;32;20088;-82
2023/06/05 01:52:39;;;;;;;3.90;1.95;;;;;;;18.49;60.20;100021.25;4469327;32;20101;-82
2023/06/05 01:55:06;;;;;;;3.28;1.75;;;;;;;18.40;60.20;100020.00;4456773;32;20179;-82
2023/06/05 01:57:33;;;;;;;3.05;2.00;;;;;;;18.63;60.21;100018.66;4459064;32;20101;-82
2023/06/05 02:00:01;;;;;;;4.18;2.22;;;;;;;18.62;60.21;100014.28;4460561;32;20100;-82
2023/06/05 02:02:28;;;;;;;9.30;2.15;;;;;;;18.58;60.20;100013.63;4458430;32;20104;-82
2023/06/05 02:04:53;;;;;;;4.37;2.03;;;;;;;18.48;60.20;100017.78;4458935;32;20424;-82
2023/06/05 02:07:21;;;;;;;3.37;1.92;;;;;;;18.55;60.20;100012.97;4482825;32;20106;-82
2023/06/05 02:09:46;;;;;;;2.30;1.83;;;;;;;18.58;60.20;100012.78;4463556;32;20119;-82
2023/06/05 02:12:15;;;;;;;3.72;1.90;;;;;;;18.65;60.21;100016.75;4445756;32;21610;-82
2023/06/05 02:14:44;;;;;;;5.47;2.05;;;;;;;18.75;60.21;100017.91;4459116;32;20093;-82
2023/06/05 02:17:13;;;;;;;4.70;1.83;;;;;;;18.72;60.21;100012.00;4459488;32;20099;-82
2023/06/05 02:19:39;;;;;;;5.97;1.70;;;;;;;18.82;60.22;100018.38;4472292;32;20109;-82
2023/06/05 02:22:04;;;;;;;4.82;1.83;;;;;;;18.94;60.23;100017.63;4471196;32;20438;-81
2023/06/05 02:24:29;;;;;;;2.92;1.98;;;;;;;19.00;60.22;100014.59;4471584;32;20143;-81
2023/06/05 02:26:56;;;;;;;3.67;2.17;;;;;;;18.94;60.22;100015.84;4454860;32;34136;-81
2023/06/05 02:29:22;;;;;;;5.97;2.08;;;;;;;18.89;60.22;100015.25;4464248;32;20096;-80
2023/06/05 02:31:47;;;;;;;3.17;2.05;;;;;;;18.89;60.22;100015.25;4475252;32;20163;-80
2023/06/05 02:34:13;;;;;;;4.07;1.60;;;;;;;19.03;60.23;100006.50;4477082;32;20144;-81
2023/06/05 02:36:38;;;;;;;4.03;1.95;;;;;;;19.20;60.23;100008.94;4466378;32;20124;-81
2023/06/05 02:39:06;;;;;;;4.20;2.00;;;;;;;19.26;60.24;100008.53;4451053;32;20174;-81
2023/06/05 02:41:32;;;;;;;3.87;1.95;;;;;;;19.05;60.22;100014.31;4486831;32;20126;-81
2023/06/05 02:43:59;;;;;;;3.15;1.80;;;;;;;18.98;60.22;100013.84;4477211;32;20097;-81
2023/06/05 02:46:24;;;;;;;3.17;1.75;;;;;;;19.06;60.23;100006.28;4469595;32;20127;-81
2023/06/05 02:48:51;;;;;;;3.08;1.92;;;;;;;18.96;60.22;100021.88;4451059;32;20148;-81
2023/06/05 02:51:16;;;;;;;3.35;2.08;;;;;;;18.99;60.22;100018.19;4455277;32;20212;-82
2023/06/05 02:53:42;;;;;;;4.57;2.33;;;;;;;18.94;60.23;100012.34;4463216;32;29398;-81
2023/06/05 02:56:07;;;;;;;6.62;2.08;;;;;;;18.84;60.23;100019.97;4470846;32;22343;-81
2023/06/05 02:58:37;;;;;;;6.65;2.45;;;;;;;18.90;60.22;100008.19;4477753;32;20843;-81
2023/06/05 03:01:02;;;;;;;4.87;2.67;;;;;;;18.97;60.22;100005.09;4447382;32;20126;-82
2023/06/05 03:03:31;;;;;;;5.35;1.95;;;;;;;18.90;60.22;100003.75;4457979;32;20796;-81
2023/06/05 03:06:03;;;;;;;4.25;2.67;;;;;;;18.75;60.21;100002.09;4457765;32;20080;-83
2023/06/05 03:08:35;;;;;;;4.90;2.47;;;;;;;18.80;60.22;100005.28;4458426;32;20123;-81
2023/06/05 03:11:02;;;;;;;8.98;3.05;;;;;;;18.80;60.22;100004.44;4458562;32;20177;-82
2023/06/05 03:13:27;;;;;;;4.87;2.60;;;;;;;18.79;60.22;100000.09;4470993;32;20119;-82
2023/06/05 03:15:56;;;;;;;5.97;2.42;;;;;;;18.89;60.22;100002.06;4457662;32;20463;-82
2023/06/05 03:18:22;;;;;;;3.47;1.98;;;;;;;18.65;60.21;100014.97;4458347;32;20076;-82
2023/06/05 03:20:50;;;;;;;5.97;2.17;;;;;;;18.65;60.21;99999.16;4485580;32;20116;-81
2023/06/05 03:23:16;;;;;;;6.62;2.47;;;;;;;18.57;60.20;100009.31;4445608;32;20145;-81
2023/06/05 03:25:41;;;;;;;4.22;2.12;;;;;;;18.68;60.20;100004.25;4471297;32;20111;-81
2023/06/05 03:28:07;;;;;;;4.93;2.65;;;;;;;18.70;60.22;100005.03;4458519;32;20092;-81
2023/06/05 03:30:32;;;;;;;5.55;2.22;;;;;;;18.73;60.21;100001.34;4457935;32;20100;-82
2023/06/05 03:32:57;;;;;;;5.40;2.62;;;;;;;18.83;60.22;99999.81;4455693;32;20484;-81
2023/06/05 03:35:23;;;;;;;4.00;2.40;;;;;;;18.93;60.23;99997.47;4471084;32;35800;-80
2023/06/05 03:37:48;;;;;;;3.25;2.05;;;;;;;18.94;60.22;100007.94;4458076;32;20088;-81
2023/06/05 03:40:14;;;;;;;4.35;2.30;;;;;;;19.02;60.23;100002.16;4470693;32;20448;-82
2023/06/05 03:42:39;;;;;;;5.60;2.30;;;;;;;19.12;60.23;99995.34;4471071;32;20124;-82
2023/06/05 03:45:06;;;;;;;2.87;2.08;;;;;;;19.10;60.23;100013.06;4471020;32;20655;-82
2023/06/05 03:47:34;;;;;;;3.37;2.28;;;;;;;19.37;60.24;100010.47;4471012;32;20072;-80
2023/06/05 03:50:00;;;;;;;3.85;2.50;;;;;;;19.45;60.25;100007.34;4465757;32;20089;-79
2023/06/05 03:52:26;;;;;;;4.90;2.47;;;;;;;19.55;60.26;100016.41;4442464;32;20104;-81
2023/06/05 03:54:55;;;;;;;4.05;2.22;;;;;;;19.54;60.26;100020.84;4465463;32;20064;-82
2023/06/05 03:57:21;;;;;;;6.40;2.22;;;;;;;19.60;60.26;100016.94;4465365;32;20119;-81
2023/06/05 03:59:49;;;;;;;3.37;2.30;;;;;;;19.54;60.25;100014.69;4457645;32;20096;-81
2023/06/05 04:02:15;;;;;;;3.75;1.77;;;;;;;19.65;60.26;100019.31;4458146;32;20104;-81
2023/06/05 04:04:40;;;;;;;5.15;2.80;;;;;;;19.96;60.28;100010.19;4457630;32;20135;-82
2023/06/05 04:07:05;;;;;;;4.68;2.45;;;;;;;19.95;60.27;100014.63;4456140;32;20130;-81
2023/06/05 04:09:31;;;;;;;5.87;2.20;;;;;;;19.99;60.28;100013.47;4447122;32;20424;-81
2023/06/05 04:11:57;;;;;;;4.35;2.67;;;;;;;20.23;60.30;100011.81;4470100;32;20418;-82
2023/06/05 04:14:23;;;;;;;4.62;2.67;;;;;;;20.26;60.30;100016.06;4470394;32;20153;-81
2023/06/05 04:16:48;;;;;;;5.35;2.87;;;;;;;20.38;60.29;100007.31;4470495;32;20136;-81
2023/06/05 04:19:13;;;;;;;7.37;2.42;;;;;;;20.27;60.29;100008.97;4451759;32;20154;-81
2023/06/05 04:21:39;;;;;;;5.90;2.47;;;;;;;20.30;60.29;100019.34;4454746;32;20153;-82
2023/06/05 04:24:06;;;;;;;6.40;2.30;;;;;;;20.23;60.30;100018.91;4460448;32;20080;-81
2023/06/05 04:26:36;;;;;;;4.93;2.28;;;;;;;20.14;60.28;100011.62;4484598;32;20510;-80
2023/06/05 04:29:02;;;;;;;5.50;2.40;;;;;;;20.04;60.28;100011.38;4470182;32;20108;-81
2023/06/05 04:31:32;;;;;;;4.32;2.28;;;;;;;20.15;60.28;100005.38;4443966;32;20104;-81
2023/06/05 04:33:58;;;;;;;4.37;1.98;;;;;;;20.32;60.30;100015.62;4484601;32;20089;-80
2023/06/05 04:36:26;;;;;;;4.60;2.05;;;;;;;20.33;60.30;100009.41;4482770;32;20081;-81
2023/06/05 04:38:53;;;;;;;4.47;2.62;;;;;;;20.33;60.30;100017.31;4454283;32;20108;-81
2023/06/05 04:41:18;;;;;;;5.32;2.28;;;;;;;20.35;60.30;100014.59;4456708;32;20120;-81
2023/06/05 04:43:44;;;;;;;5.03;2.45;;;;;;;20.22;60.29;100015.44;4469317;32;20403;-81
2023/06/05 04:46:09;;;;;;;9.18;2.58;;;;;;;20.36;60.30;100018.94;4467431;32;20436;-80
2023/06/05 04:48:36;;;;;;;4.57;2.22;;;;;;;20.41;60.30;100017.69;4447969;32;20140;-81
2023/06/05 04:51:01;;;;;;;4.25;2.50;;;;;;;20.40;60.30;100023.06;4481821;32;20192;-81
2023/06/05 04:53:28;;;;;;;6.78;2.60;;;;;;;20.44;60.30;100004.28;4468457;32;20453;-81
2023/06/05 04:55:55;;;;;;;7.03;2.62;;;;;;;20.61;60.31;100011.06;4480914;32;20149;-80
2023/06/05 04:58:21;;;;;;;6.15;2.75;;;;;;;20.54;60.31;100009.75;4470240;32;20109;-80
2023/06/05 05:00:48;;;;;;;4.22;2.97;;;;;;;20.69;60.31;100015.78;4456764;32;20143;-81
2023/06/05 05:03:14;;;;;;;4.43;2.83;;;;;;;20.63;60.32;100016.22;4483944;32;20468;-81
2023/06/05 05:05:39;;;;;;;5.12;2.90;;;;;;;20.79;60.32;100008.91;4458893;32;20100;-81
2023/06/05 05:08:05;;;;;;;5.57;2.70;;;;;;;20.98;60.33;100005.81;4469455;32;20131;-81
2023/06/05 05:10:31;;;;;;;6.80;3.10;;;;;;;20.81;60.32;100013.13;4456270;32;20134;-81
2023/06/05 05:12:56;;;;;;;8.20;2.97;;;;;;;21.00;60.33;100007.38;4469159;32;20088;-81
2023/06/05 05:15:22;;;;;;;7.70;2.83;;;;;;;21.00;60.33;100007.38;4456257;32;20105;-80
2023/06/05 05:17:49;;;;;;;7.57;3.22;;;;;;;21.24;60.35;100002.16;4469486;32;20141;-81
2023/06/05 05:20:14;;;;;;;4.70;2.33;;;;;;;21.43;60.35;100007.81;4457891;32;20104;-81
2023/06/05 05:22:39;;;;;;;4.12;2.37;;;;;;;21.73;60.37;100002.06;4458762;32;20409;-81
2023/06/05 05:25:05;;;;;;;4.37;2.62;;;;;;;21.75;60.37;100005.44;4484050;32;23895;-80
2023/06/05 05:27:31;;;;;;;5.87;2.80;;;;;;;21.92;60.38;99998.91;4477174;32;20104;-81
2023/06/05 05:29:56;;;;;;;4.75;2.33;;;;;;;21.87;60.36;100000.22;4473569;32;20123;-81
2023/06/05 05:32:22;;;;;;;7.20;2.60;;;;;;;22.07;60.38;99996.94;4462602;32;27955;-81
2023/06/05 05:34:47;;;;;;;5.82;2.62;;;;;;;22.02;60.38;100009.69;4472604;32;20428;-81
2023/06/05 05:37:13;;;;;;;6.12;2.58;;;;;;;22.05;60.38;100006.81;4462523;32;20169;-81
2023/06/05 05:39:39;;;;;;;8.20;2.55;;;;;;;22.19;60.40;100009.25;4471582;32;20509;-81
2023/06/05 05:42:04;;;;;;;5.68;2.55;;;;;;;22.27;60.40;100004.25;4471633;32;20089;-81
2023/06/05 05:44:30;;;;;;;4.05;2.40;;;;;;;22.24;60.39;100003.59;4484308;32;20081;-80
2023/06/05 05:46:55;;;;;;;9.40;2.85;;;;;;;22.28;60.40;100003.28;4470215;32;20816;-81
2023/06/05 05:49:21;;;;;;;7.57;2.37;;;;;;;22.30;60.39;100004.00;4470197;32;20107;-81
2023/06/05 05:51:46;;;;;;;6.55;2.85;;;;;;;22.33;60.39;100010.88;4455751;32;20140;-82
2023/06/05 05:54:12;;;;;;;9.23;2.70;;;;;;;22.22;60.39;100003.72;4467350;32;20396;-82
2023/06/05 05:56:37;;;;;;;7.65;2.83;;;;;;;22.26;60.40;99991.94;4457957;32;20514;-82
2023/06/05 05:59:05;;;;;;;4.55;2.92;;;;;;;22.20;60.39;99997.69;4443444;32;33687;-82
2023/06/05 06:01:32;;;;;;;8.98;2.53;;;;;;;22.35;60.40;99993.87;4475409;32;33559;-82
2023/06/05 06:03:57;;;;;;;6.37;3.10;;;;;;;22.24;60.39;99996.53;4472119;32;20148;-82
2023/06/05 06:06:22;;;;;;;8.23;2.90;;;;;;;22.24;60.39;99991.22;4459053;32;20120;-81
2023/06/05 06:08:48;;;;;;;6.10;2.80;;;;;;;22.35;60.41;99998.34;4450280;32;36824;-82
2023/06/05 06:11:13;;;;;;;7.60;3.35;;;;;;;22.51;60.41;99992.69;4449179;32;20113;-82
2023/06/05 06:13:40;;;;;;;21.80;12.80;;;;;;;22.40;60.40;99990.00;4471783;32;20069;-82
2023/06/05 06:16:05;;;;;;;5.85;3.53;;;;;;;22.43;60.41;99989.78;4471294;32;20097;-83
2023/06/05 06:18:31;;;;;;;5.75;2.80;;;;;;;22.53;60.41;99988.13;4469673;32;20160;-83
2023/06/05 06:20:58;;;;;;;19.02;9.43;;;;;;;22.62;60.41;99984.72;4475964;32;20402;-81
2023/06/05 06:23:24;;;;;;;8.30;4.90;;;;;;;22.51;60.41;99993.53;4457153;32;20141;-82
2023/06/05 06:25:51;;;;;;;7.50;3.50;;;;;;;22.53;60.41;99988.13;4455678;32;20160;-81
2023/06/05 06:28:17;;;;;;;10.13;2.90;;;;;;;22.50;60.41;99988.34;4455465;32;20092;-81
2023/06/05 06:30:43;;;;;;;5.75;2.60;;;;;;;22.63;60.42;99984.63;4455660;32;20092;-80
2023/06/05 06:33:09;;;;;;;10.68;6.00;;;;;;;22.70;60.41;99989.44;4455958;32;20158;-82
2023/06/05 06:35:34;;;;;;;6.55;3.20;;;;;;;22.96;60.44;99983.81;4472377;32;20509;-81
2023/06/05 06:38:00;;;;;;;13.85;4.90;;;;;;;22.99;60.44;99985.37;4488631;32;20176;-81
2023/06/05 06:40:25;;;;;;;8.95;3.50;;;;;;;22.90;60.43;99997.53;4461890;32;20108;-81
2023/06/05 06:42:51;;;;;;;5.90;3.12;;;;;;;22.89;60.43;99989.72;4469050;32;20116;-80
2023/06/05 06:45:17;;;;;;;7.43;2.97;;;;;;;22.90;60.44;99989.59;4474399;32;20362;-80
2023/06/05 06:47:43;;;;;;;10.65;2.72;;;;;;;23.01;60.43;99993.22;4470422;32;20498;-82
2023/06/05 06:50:09;;;;;;;8.80;3.17;;;;;;;23.09;60.44;99996.94;4460785;32;20085;-82
2023/06/05 06:52:34;;;;;;;5.28;2.42;;;;;;;22.94;60.43;99996.34;4467649;32;20445;-81
2023/06/05 06:55:00;;;;;;;8.73;2.92;;;;;;;23.04;60.44;99990.31;4471353;32;20478;-79
2023/06/05 06:57:25;;;;;;;12.90;2.80;;;;;;;23.10;60.44;99993.31;4471669;32;20162;-81
2023/06/05 06:59:53;;;;;;;10.27;2.60;;;;;;;23.15;60.45;99991.13;4471874;32;20112;-80
2023/06/05 07:02:19;;;;;;;5.90;3.20;;;;;;;23.20;60.46;99990.78;4459128;32;20433;-81
2023/06/05 07:04:45;;;;;;;5.00;2.62;;;;;;;23.11;60.45;99992.34;4446249;32;20561;-80
2023/06/05 07:07:13;;;;;;;5.65;2.65;;;;;;;23.15;60.44;99990.28;4471385;32;20185;-80
2023/06/05 07:09:39;;;;;;;5.05;2.83;;;;;;;23.14;60.45;99989.44;4454123;32;20088;-80
2023/06/05 07:12:05;;;;;;;7.18;3.12;;;;;;;23.37;60.46;99995.56;4481713;32;20455;-81
2023/06/05 07:14:34;;;;;;;8.30;2.87;;;;;;;23.56;60.47;99987.81;4471694;32;20125;-81
2023/06/05 07:17:00;;;;;;;7.80;3.35;;;;;;;23.78;60.47;99996.66;4471859;32;20460;-81
2023/06/05 07:19:27;;;;;;;6.10;2.50;;;;;;;23.77;60.48;99997.62;4471442;32;20185;-81
2023/06/05 07:21:53;;;;;;;6.55;2.72;;;;;;;23.75;60.49;99995.09;4485517;32;20460;-82
2023/06/05 07:24:18;;;;;;;10.02;2.95;;;;;;;23.83;60.48;99995.31;4458392;32;20109;-82
2023/06/05 07:26:44;;;;;;;5.47;2.70;;;;;;;23.92;60.49;100003.50;4471209;32;20120;-80
2023/06/05 07:29:10;;;;;;;5.07;2.92;;;;;;;23.88;60.48;100010.88;4458628;32;20215;-81
2023/06/05 07:31:36;;;;;;;7.05;3.00;;;;;;;23.96;60.48;100003.13;4471521;32;20768;-82
2023/06/05 07:34:02;;;;;;;7.80;3.40;;;;;;;24.09;60.49;100009.06;4471364;32;20134;-82
2023/06/05 07:36:28;;;;;;;9.90;3.00;;;;;;;24.09;60.49;100002.91;4458576;32;20148;-81
2023/06/05 07:38:53;;;;;;;8.82;2.97;;;;;;;24.29;60.51;100006.59;4458523;32;20491;-81
2023/06/05 07:41:19;;;;;;;8.70;3.33;;;;;;;24.26;60.51;100010.31;4485448;32;20096;-82
2023/06/05 07:43:44;;;;;;;12.95;3.15;;;;;;;24.32;60.51;100009.81;4456757;32;21906;-81
2023/06/05 07:46:10;;;;;;;5.45;2.97;;;;;;;24.37;60.51;100006.78;4485481;32;20492;-81
2023/06/05 07:48:35;;;;;;;8.65;3.37;;;;;;;24.51;60.51;99995.81;4485351;32;20129;-81
2023/06/05 07:51:01;;;;;;;5.85;2.80;;;;;;;24.69;60.53;100004.88;4470527;32;36829;-81
2023/06/05 07:53:26;;;;;;;7.70;3.55;;;;;;;24.76;60.54;100000.69;4444747;32;20112;-80
2023/06/05 07:55:52;;;;;;;8.27;3.53;;;;;;;24.79;60.53;100013.72;4470510;32;31544;-82
2023/06/05 07:58:18;;;;;;;13.50;3.30;;;;;;;24.83;60.53;100002.81;4485578;32;20420;-82
2023/06/05 08:00:47;;;;;;;6.53;2.80;;;;;;;24.87;60.53;100006.91;4458079;32;20130;-81
2023/06/05 08:03:21;;;;;;;7.87;3.03;;;;;;;24.94;60.54;100006.22;4471805;32;20100;-81
2023/06/05 08:05:47;;;;;;;10.68;3.33;;;;;;;24.99;60.54;100006.69;4459855;32;20105;-81
2023/06/05 08:08:13;;;;;;;5.80;2.80;;;;;;;24.97;60.54;100002.44;4471204;32;20088;-80
2023/06/05 08:10:39;;;;;;;8.07;3.80;;;;;;;25.16;60.55;100005.22;4458252;32;20123;-81
2023/06/05 08:13:04;;;;;;;7.37;3.15;;;;;;;25.14;60.56;100009.84;4471299;32;20162;-81
2023/06/05 08:15:30;;;;;;;9.63;3.15;;;;;;;25.23;60.56;99998.34;4485544;32;20100;-81
2023/06/05 08:17:55;;;;;;;10.73;3.00;;;;;;;25.21;60.55;100005.66;4471232;32;20112;-81
2023/06/05 08:20:21;;;;;;;8.57;3.12;;;;;;;25.12;60.55;100009.13;4457793;32;20084;-81
2023/06/05 08:22:47;;;;;;;11.75;3.58;;;;;;;25.32;60.56;100010.88;4471094;32;20168;-80
2023/06/05 08:25:12;;;;;;;7.97;3.70;;;;;;;25.27;60.56;100009.56;4471129;32;20148;-82
2023/06/05 08:27:37;;;;;;;12.40;3.35;;;;;;;25.36;60.56;100009.63;4458084;32;20152;-81
2023/06/05 08:30:03;;;;;;;10.38;3.25;;;;;;;25.32;60.56;100010.03;4444760;32;20449;-80
2023/06/05 08:32:29;;;;;;;8.98;3.00;;;;;;;25.34;60.56;100011.59;4483766;32;20468;-81
2023/06/05 08:34:54;;;;;;;11.12;3.33;;;;;;;25.35;60.56;100013.25;4457834;32;20127;-80
2023/06/05 08:37:20;;;;;;;12.68;3.67;;;;;;;25.31;60.56;100008.31;4457810;32;20572;-81
2023/06/05 08:39:46;;;;;;;8.52;2.80;;;;;;;25.19;60.55;100012.94;4470206;32;28619;-79
2023/06/05 08:42:17;;;;;;;12.27;3.50;;;;;;;25.33;60.56;100009.06;4458291;32;20136;-81
2023/06/05 08:44:43;;;;;;;6.75;2.70;;;;;;;25.36;60.56;100009.63;4459343;32;20474;-81
2023/06/05 08:47:08;;;;;;;8.50;3.75;;;;;;;25.52;60.57;100008.22;4457867;32;20132;-81
2023/06/05 08:49:36;;;;;;;6.25;3.22;;;;;;;25.68;60.57;100013.91;4457553;32;20122;-80
2023/06/05 08:52:03;;;;;;;12.55;3.00;;;;;;;25.64;60.58;100012.47;4457838;32;20413;-80
2023/06/05 08:54:31;;;;;;;9.45;3.85;;;;;;;25.56;60.57;100009.66;4470439;32;20171;-81
2023/06/05 08:56:57;;;;;;;6.80;3.20;;;;;;;25.53;60.58;100012.56;4459435;32;20118;-81
2023/06/05 08:59:24;;;;;;;12.35;2.87;;;;;;;25.69;60.58;100019.09;4459483;32;20111;-82
2023/06/05 09:01:50;;;;;;;6.40;3.33;;;;;;;25.86;60.59;100014.88;4460198;32;20128;-82
2023/06/05 09:04:15;;;;;;;7.70;3.40;;;;;;;25.86;60.59;100004.22;4472643;32;20399;-81
2023/06/05 09:06:46;;;;;;;7.25;2.92;;;;;;;25.49;60.57;100000.50;4444896;32;33852;-81
2023/06/05 09:09:14;;;;;;;5.90;2.53;;;;;;;25.43;60.57;100009.06;4465585;32;20092;-82
2023/06/05 09:11:39;;;;;;;8.00;3.30;;;;;;;25.52;60.56;100000.22;4469213;32;20128;-83
2023/06/05 09:14:05;;;;;;;7.47;3.08;;;;;;;25.42;60.57;100002.87;4476683;32;20081;-81
2023/06/05 09:16:37;;;;;;;12.45;3.15;;;;;;;25.54;60.58;100006.25;4446138;32;20112;-82
2023/06/05 09:19:03;;;;;;;8.48;3.55;;;;;;;25.64;60.58;100002.63;4471208;32;20115;-81
2023/06/05 09:21:30;;;;;;;9.45;3.22;;;;;;;25.68;60.58;99997.91;4469998;32;20100;-81
2023/06/05 09:24:15;;;;;;;8.18;2.90;;;;;;;25.81;60.59;99993.16;4459809;32;20150;-82
2023/06/05 09:26:46;;;;;;;8.07;3.12;;;;;;;25.53;60.58;99993.91;4468832;32;20088;-81
2023/06/05 09:29:16;;;;;;;6.30;2.97;;;;;;;25.86;60.59;99998.88;4455849;32;20449;-81
2023/06/05 09:31:44;;;;;;;9.02;2.95;;;;;;;25.98;60.60;100004.91;4470920;32;20432;-81
2023/06/05 09:34:20;;;;;;;17.05;3.33;;;;;;;26.01;60.60;100000.13;4471840;32;20130;-82
2023/06/05 09:36:45;;;;;;;11.77;2.85;;;;;;;26.22;60.60;99999.13;4459384;32;20081;-83
2023/06/05 09:39:15;;;;;;;5.75;2.65;;;;;;;26.32;60.62;99997.28;4458279;32;20149;-82
2023/06/05 09:47:37;;;;;;;4.68;2.30;;;;;;;26.97;60.66;99986.69;4995525;26;20106;-89
2023/06/05 09:50:03;;;;;;;5.07;1.98;;;;;;;27.40;60.67;99986.03;4440384;32;20102;-88
2023/06/05 09:52:29;;;;;;;4.43;2.12;;;;;;;27.50;60.66;99981.50;4428123;32;20151;-88
2023/06/05 09:54:54;;;;;;;8.27;2.33;;;;;;;27.69;60.68;99977.87;4428734;32;20097;-89
2023/06/05 09:57:20;;;;;;;8.10;2.20;;;;;;;27.96;60.69;99967.06;4415740;32;20105;-88
2023/06/05 09:59:56;;;;;;;6.03;2.50;;;;;;;28.42;60.72;99963.22;4441356;32;20077;-89
2023/06/05 10:02:24;;;;;;;3.62;2.25;;;;;;;28.13;60.71;99965.31;4441661;32;20529;-87
2023/06/05 10:04:55;;;;;;;13.35;2.72;;;;;;;28.39;60.72;99957.31;4428613;32;20460;-88
2023/06/05 10:07:20;;;;;;;5.12;2.03;;;;;;;28.53;60.73;99959.44;4428278;32;20249;-88
2023/06/05 10:09:48;;;;;;;4.45;2.25;;;;;;;28.67;60.73;99952.66;4428273;32;20085;-89
2023/06/05 10:12:14;;;;;;;4.68;2.33;;;;;;;28.94;60.75;99943.56;4441219;32;20510;-89
2023/06/05 10:14:41;;;;;;;3.87;2.55;;;;;;;29.10;60.76;99948.13;4428230;32;20101;-89
2023/06/05 10:17:06;;;;;;;5.22;2.67;;;;;;;29.20;60.76;99948.84;4441255;32;20471;-88
2023/06/05 10:19:32;;;;;;;4.72;2.72;;;;;;;29.54;60.77;99938.03;4428333;32;20099;-88
2023/06/05 10:21:57;;;;;;;4.45;2.72;;;;;;;29.88;60.80;99932.50;4440562;32;24486;-88
2023/06/05 10:24:36;;;;;;;4.30;2.12;;;;;;;30.19;60.82;99933.50;4428371;32;20416;-89
2023/06/05 10:27:11;;;;;;;4.78;3.00;;;;;;;30.46;60.82;99921.50;4428407;32;20081;-87
2023/06/05 10:29:51;;;;;;;8.65;2.95;;;;;;;30.58;60.82;99921.16;4455287;32;20078;-88
2023/06/05 10:32:16;;;;;;;;;;;;;;;30.73;60.83;99924.78;4455614;32;20349;-87
2023/06/05 10:34:49;;;;;;;10.23;2.67;;;;;;;30.51;60.83;99918.28;4441194;32;20019;-86
2023/06/05 10:37:29;;;;;;;4.40;2.33;;;;;;;30.60;60.83;99914.59;4441328;32;20130;-87
2023/06/05 10:39:56;;;;;;;4.70;2.28;;;;;;;30.68;60.84;99917.25;4454908;32;20148;-87
2023/06/05 10:42:28;;;;;;;4.62;1.90;;;;;;;31.03;60.85;99913.25;4441029;32;20109;-86
2023/06/05 10:44:53;;;;;;;3.62;2.20;;;;;;;31.15;60.86;99914.50;4441221;32;20180;-86
2023/06/05 10:47:37;;;;;;;6.95;2.30;;;;;;;31.25;60.87;99910.78;4440743;32;20097;-86
2023/06/05 10:50:19;;;;;;;4.18;2.33;;;;;;;31.51;60.88;99918.50;4455080;32;20089;-86
2023/06/05 10:52:47;;;;;;;3.25;2.12;;;;;;;31.64;60.89;99913.34;4440678;32;20112;-87
2023/06/05 10:55:15;;;;;;;4.12;2.10;;;;;;;31.60;60.88;99906.66;4415754;32;20109;-86
2023/06/05 10:58:09;;;;;;;4.35;2.28;;;;;;;31.34;60.87;99915.09;4428453;32;20452;-85
2023/06/05 11:00:35;;;;;;;4.90;2.05;;;;;;;31.30;60.88;99909.22;4455094;32;20107;-85
2023/06/05 11:03:01;;;;;;;4.53;2.60;;;;;;;31.32;60.87;99912.56;4428650;32;20121;-84
2023/06/05 11:05:27;;;;;;;3.60;2.28;;;;;;;31.18;60.87;99902.56;4457414;32;20172;-84
2023/06/05 11:08:19;;;;;;;6.93;2.00;;;;;;;31.30;60.88;99905.72;4443917;32;20108;-85
2023/06/05 11:11:05;;;;;;;5.07;2.30;;;;;;;31.44;60.88;99900.38;4438362;32;20085;-84
2023/06/05 11:13:54;;;;;;;3.40;2.30;;;;;;;31.45;60.88;99901.19;4428423;32;20101;-84
2023/06/05 11:16:26;;;;;;;8.07;2.33;;;;;;;31.37;60.87;99903.97;4455028;32;20527;-83
2023/06/05 11:18:54;;;;;;;5.85;2.25;;;;;;;31.44;60.88;99905.75;4455001;32;20156;-85
2023/06/05 11:21:19;;;;;;;4.82;2.15;;;;;;;31.36;60.87;99897.75;4441095;32;20085;-84
2023/06/05 11:24:13;;;;;;;6.07;2.22;;;;;;;30.95;60.85;99902.50;4454919;32;20109;-84
2023/06/05 11:26:39;;;;;;;5.28;2.70;;;;;;;30.84;60.85;99898.38;4440715;32;20101;-86
2023/06/05 11:29:10;;;;;;;5.62;2.37;;;;;;;30.61;60.84;99908.22;4440740;32;20526;-85
2023/06/05 11:31:36;;;;;;;5.03;2.37;;;;;;;30.64;60.84;99902.50;4440605;32;20080;-85
2023/06/05 11:34:01;;;;;;;4.00;2.17;;;;;;;30.83;60.85;99894.03;4440846;32;20127;-85